sensor_id;sensor_type;location;lat;lon;timestamp;pressure;altitude;pressure_sealevel;temperature;humidity
27040;BME280;14589;51.578;7.306;2023-12-20T00:01:01;100982.63;;;7.21;100.00
27040;BME280;14589;51.578;7.306;2023-12-20T00:03:31;100984.56;;;7.19;100.00
27040;BME280;14589;51.578;7.306;2023-12-20T00:06:02;100995.25;;;7.20;100.00
27040;BME280;14589;51.578;7.306;2023-12-20T00:08:32;100998.06;;;7.19;100.00
27040;BME280;14589;51.578;7.306;2023-12-20T00:11:02;100986.66;;;7.15;100.00
27040;BME280;14589;51.578;7.306;2023-12-20T00:13:33;100997.31;;;7.17;100.00
27040;BME280;14589;51.578;7.306;2023-12-20T00:16:03;100984.09;;;7.14;100.00
27040;BME280;14589;51.578;7.306;2023-12-20T00:18:34;100987.25;;;7.08;100.00
27040;BME280;14589;51.578;7.306;2023-12-20T00:21:04;100985.75;;;7.04;100.00
27040;BME280;14589;51.578;7.306;2023-12-20T00:23:35;101001.22;;;7.02;100.00
27040;BME280;14589;51.578;7.306;2023-12-20T00:26:05;100998.03;;;6.97;100.00
27040;BME280;14589;51.578;7.306;2023-12-20T00:28:35;101003.44;;;6.97;100.00
27040;BME280;14589;51.578;7.306;2023-12-20T00:31:06;101013.34;;;6.96;100.00
27040;BME280;14589;51.578;7.306;2023-12-20T00:33:36;101015.41;;;6.93;100.00
27040;BME280;14589;51.578;7.306;2023-12-20T00:36:07;101009.63;;;6.86;100.00
27040;BME280;14589;51.578;7.306;2023-12-20T00:38:37;101010.84;;;6.82;100.00
27040;BME280;14589;51.578;7.306;2023-12-20T00:41:07;101011.06;;;6.79;100.00
27040;BME280;14589;51.578;7.306;2023-12-20T00:43:38;101019.28;;;6.77;100.00
27040;BME280;14589;51.578;7.306;2023-12-20T00:46:08;101027.50;;;6.76;100.00
27040;BME280;14589;51.578;7.306;2023-12-20T00:48:39;101024.41;;;6.69;100.00
27040;BME280;14589;51.578;7.306;2023-12-20T00:51:12;101039.25;;;6.75;100.00
27040;BME280;14589;51.578;7.306;2023-12-20T00:53:42;101039.72;;;6.69;100.00
27040;BME280;14589;51.578;7.306;2023-12-20T00:56:13;101039.81;;;6.67;100.00
27040;BME280;14589;51.578;7.306;2023-12-20T00:58:44;101040.16;;;6.63;100.00
27040;BME280;14589;51.578;7.306;2023-12-20T01:01:15;101038.13;;;6.66;100.00
27040;BME280;14589;51.578;7.306;2023-12-20T01:03:45;101045.56;;;6.63;100.00
27040;BME280;14589;51.578;7.306;2023-12-20T01:06:16;101040.06;;;6.64;100.00
27040;BME280;14589;51.578;7.306;2023-12-20T01:08:46;101033.81;;;6.64;100.00
27040;BME280;14589;51.578;7.306;2023-12-20T01:11:16;101044.94;;;6.59;100.00
27040;BME280;14589;51.578;7.306;2023-12-20T01:13:47;101049.47;;;6.59;100.00
27040;BME280;14589;51.578;7.306;2023-12-20T01:16:17;101040.75;;;6.55;100.00
27040;BME280;14589;51.578;7.306;2023-12-20T01:18:48;101046.44;;;6.63;100.00
27040;BME280;14589;51.578;7.306;2023-12-20T01:21:18;101048.03;;;6.66;100.00
27040;BME280;14589;51.578;7.306;2023-12-20T01:23:48;101046.66;;;6.60;100.00
27040;BME280;14589;51.578;7.306;2023-12-20T01:26:19;101047.28;;;6.64;100.00
27040;BME280;14589;51.578;7.306;2023-12-20T01:28:49;101046.44;;;6.63;100.00
27040;BME280;14589;51.578;7.306;2023-12-20T01:31:19;101057.09;;;6.65;100.00
27040;BME280;14589;51.578;7.306;2023-12-20T01:33:50;101054.63;;;6.62;100.00
27040;BME280;14589;51.578;7.306;2023-12-20T01:36:20;101036.97;;;6.58;100.00
27040;BME280;14589;51.578;7.306;2023-12-20T01:38:51;101050.44;;;6.58;100.00
27040;BME280;14589;51.578;7.306;2023-12-20T01:41:21;101055.22;;;6.54;100.00
27040;BME280;14589;51.578;7.306;2023-12-20T01:43:51;101040.03;;;6.53;100.00
27040;BME280;14589;51.578;7.306;2023-12-20T01:46:23;101058.38;;;6.48;100.00
27040;BME280;14589;51.578;7.306;2023-12-20T01:48:54;101051.06;;;6.37;100.00
27040;BME280;14589;51.578;7.306;2023-12-20T01:51:24;101045.94;;;6.34;100.00
27040;BME280;14589;51.578;7.306;2023-12-20T01:53:57;101049.78;;;6.30;100.00
27040;BME280;14589;51.578;7.306;2023-12-20T01:56:30;101063.66;;;6.37;100.00
27040;BME280;14589;51.578;7.306;2023-12-20T01:59:01;101049.69;;;6.32;100.00
27040;BME280;14589;51.578;7.306;2023-12-20T02:01:32;101030.09;;;6.30;100.00
27040;BME280;14589;51.578;7.306;2023-12-20T02:04:03;101050.44;;;6.34;100.00
27040;BME280;14589;51.578;7.306;2023-12-20T02:06:34;101060.25;;;6.35;100.00
27040;BME280;14589;51.578;7.306;2023-12-20T02:09:04;101050.81;;;6.29;100.00
27040;BME280;14589;51.578;7.306;2023-12-20T02:11:35;101037.34;;;6.29;100.00
27040;BME280;14589;51.578;7.306;2023-12-20T02:14:06;101046.78;;;6.35;100.00
27040;BME280;14589;51.578;7.306;2023-12-20T02:16:36;101046.78;;;6.35;100.00
27040;BME280;14589;51.578;7.306;2023-12-20T02:19:13;101049.22;;;6.38;100.00
27040;BME280;14589;51.578;7.306;2023-12-20T02:21:44;101054.63;;;6.38;100.00
27040;BME280;14589;51.578;7.306;2023-12-20T02:24:14;101045.28;;;6.31;100.00
27040;BME280;14589;51.578;7.306;2023-12-20T02:26:44;101036.13;;;6.33;100.00
27040;BME280;14589;51.578;7.306;2023-12-20T02:29:15;101044.41;;;6.30;100.00
27040;BME280;14589;51.578;7.306;2023-12-20T02:31:45;101041.97;;;6.27;100.00
27040;BME280;14589;51.578;7.306;2023-12-20T02:34:15;101046.59;;;6.25;100.00
27040;BME280;14589;51.578;7.306;2023-12-20T02:36:46;101049.19;;;6.27;100.00
27040;BME280;14589;51.578;7.306;2023-12-20T02:39:16;101050.16;;;6.26;100.00
27040;BME280;14589;51.578;7.306;2023-12-20T02:41:47;101049.19;;;6.27;100.00
27040;BME280;14589;51.578;7.306;2023-12-20T02:44:18;101036.94;;;6.23;100.00
27040;BME280;14589;51.578;7.306;2023-12-20T02:46:48;101044.88;;;6.24;100.00
27040;BME280;14589;51.578;7.306;2023-12-20T02:49:19;101026.25;;;6.21;100.00
27040;BME280;14589;51.578;7.306;2023-12-20T02:51:49;101044.00;;;6.24;100.00
27040;BME280;14589;51.578;7.306;2023-12-20T02:54:19;101040.03;;;6.29;100.00
27040;BME280;14589;51.578;7.306;2023-12-20T02:56:50;101046.47;;;6.27;100.00
27040;BME280;14589;51.578;7.306;2023-12-20T02:59:20;101047.56;;;6.24;100.00
27040;BME280;14589;51.578;7.306;2023-12-20T03:01:51;101048.22;;;6.28;100.00
27040;BME280;14589;51.578;7.306;2023-12-20T03:04:21;101032.41;;;6.23;100.00
27040;BME280;14589;51.578;7.306;2023-12-20T03:06:51;101034.34;;;6.21;100.00
27040;BME280;14589;51.578;7.306;2023-12-20T03:09:22;101041.56;;;6.21;100.00
27040;BME280;14589;51.578;7.306;2023-12-20T03:11:52;101035.94;;;6.24;100.00
27040;BME280;14589;51.578;7.306;2023-12-20T03:14:22;101041.44;;;6.22;100.00
27040;BME280;14589;51.578;7.306;2023-12-20T03:16:53;101039.81;;;6.20;100.00
27040;BME280;14589;51.578;7.306;2023-12-20T03:19:23;101039.94;;;6.18;100.00
27040;BME280;14589;51.578;7.306;2023-12-20T03:21:54;101032.09;;;6.15;100.00
27040;BME280;14589;51.578;7.306;2023-12-20T03:24:24;101019.81;;;6.11;100.00
27040;BME280;14589;51.578;7.306;2023-12-20T03:26:54;101046.94;;;6.21;100.00
27040;BME280;14589;51.578;7.306;2023-12-20T03:29:25;101049.31;;;6.13;100.00
27040;BME280;14589;51.578;7.306;2023-12-20T03:31:55;101048.59;;;6.11;100.00
27040;BME280;14589;51.578;7.306;2023-12-20T03:34:26;101043.31;;;6.09;100.00
27040;BME280;14589;51.578;7.306;2023-12-20T03:36:56;101038.16;;;6.06;100.00
27040;BME280;14589;51.578;7.306;2023-12-20T03:39:27;101035.03;;;5.99;100.00
27040;BME280;14589;51.578;7.306;2023-12-20T03:41:57;101018.88;;;5.99;100.00
27040;BME280;14589;51.578;7.306;2023-12-20T03:44:28;101021.59;;;5.99;100.00
27040;BME280;14589;51.578;7.306;2023-12-20T03:46:58;101026.69;;;5.91;100.00
27040;BME280;14589;51.578;7.306;2023-12-20T03:49:28;101023.84;;;5.93;100.00
27040;BME280;14589;51.578;7.306;2023-12-20T03:51:59;101032.47;;;5.85;100.00
27040;BME280;14589;51.578;7.306;2023-12-20T03:54:29;101025.59;;;5.81;100.00
27040;BME280;14589;51.578;7.306;2023-12-20T03:56:59;101029.69;;;5.74;100.00
27040;BME280;14589;51.578;7.306;2023-12-20T03:59:34;101033.25;;;5.75;100.00
27040;BME280;14589;51.578;7.306;2023-12-20T04:02:05;101028.50;;;5.78;100.00
27040;BME280;14589;51.578;7.306;2023-12-20T04:04:35;101031.41;;;5.75;100.00
27040;BME280;14589;51.578;7.306;2023-12-20T04:07:05;101026.38;;;5.70;100.00
27040;BME280;14589;51.578;7.306;2023-12-20T04:09:36;101037.13;;;5.70;100.00
27040;BME280;14589;51.578;7.306;2023-12-20T04:12:06;101024.53;;;5.71;100.00
27040;BME280;14589;51.578;7.306;2023-12-20T04:14:37;101028.31;;;5.68;100.00
27040;BME280;14589;51.578;7.306;2023-12-20T04:17:07;101027.56;;;5.79;100.00
27040;BME280;14589;51.578;7.306;2023-12-20T04:19:38;101024.66;;;5.69;100.00
27040;BME280;14589;51.578;7.306;2023-12-20T04:22:08;101023.16;;;5.65;100.00
27040;BME280;14589;51.578;7.306;2023-12-20T04:24:39;101020.34;;;5.67;100.00
27040;BME280;14589;51.578;7.306;2023-12-20T04:27:10;101024.03;;;5.66;100.00
27040;BME280;14589;51.578;7.306;2023-12-20T04:29:40;101012.41;;;5.65;100.00
27040;BME280;14589;51.578;7.306;2023-12-20T04:32:11;101008.84;;;5.65;100.00
27040;BME280;14589;51.578;7.306;2023-12-20T04:34:41;101017.00;;;5.63;100.00
27040;BME280;14589;51.578;7.306;2023-12-20T04:37:11;101016.28;;;5.61;100.00
27040;BME280;14589;51.578;7.306;2023-12-20T04:39:42;101021.53;;;5.63;100.00
27040;BME280;14589;51.578;7.306;2023-12-20T04:42:13;101024.22;;;5.63;100.00
27040;BME280;14589;51.578;7.306;2023-12-20T04:44:43;101025.50;;;5.70;100.00
27040;BME280;14589;51.578;7.306;2023-12-20T04:47:14;101020.78;;;5.74;100.00
27040;BME280;14589;51.578;7.306;2023-12-20T04:49:44;101028.09;;;5.72;100.00
27040;BME280;14589;51.578;7.306;2023-12-20T04:52:14;101035.31;;;5.71;100.00
27040;BME280;14589;51.578;7.306;2023-12-20T04:54:45;101026.69;;;5.79;100.00
27040;BME280;14589;51.578;7.306;2023-12-20T04:57:15;101029.69;;;5.74;100.00
27040;BME280;14589;51.578;7.306;2023-12-20T04:59:45;101023.22;;;5.77;100.00
27040;BME280;14589;51.578;7.306;2023-12-20T05:02:16;101024.97;;;5.78;100.00
27040;BME280;14589;51.578;7.306;2023-12-20T05:04:46;101032.69;;;5.82;100.00
27040;BME280;14589;51.578;7.306;2023-12-20T05:07:17;101030.34;;;5.78;100.00
27040;BME280;14589;51.578;7.306;2023-12-20T05:09:47;101010.47;;;5.67;100.00
27040;BME280;14589;51.578;7.306;2023-12-20T05:12:17;101033.91;;;5.65;100.00
27040;BME280;14589;51.578;7.306;2023-12-20T05:14:48;101036.72;;;5.64;100.00
27040;BME280;14589;51.578;7.306;2023-12-20T05:17:18;101025.19;;;5.62;100.00
27040;BME280;14589;51.578;7.306;2023-12-20T05:19:50;101021.53;;;5.63;100.00
27040;BME280;14589;51.578;7.306;2023-12-20T05:22:21;101038.63;;;5.62;100.00
27040;BME280;14589;51.578;7.306;2023-12-20T05:24:51;101037.66;;;5.63;100.00
27040;BME280;14589;51.578;7.306;2023-12-20T05:27:22;101034.13;;;5.62;100.00
27040;BME280;14589;51.578;7.306;2023-12-20T05:29:52;101030.47;;;5.63;100.00
27040;BME280;14589;51.578;7.306;2023-12-20T05:32:23;101024.56;;;5.58;100.00
27040;BME280;14589;51.578;7.306;2023-12-20T05:34:54;101018.84;;;5.63;100.00
27040;BME280;14589;51.578;7.306;2023-12-20T05:37:24;101021.09;;;5.56;100.00
27040;BME280;14589;51.578;7.306;2023-12-20T05:39:54;101012.84;;;5.59;100.00
27040;BME280;14589;51.578;7.306;2023-12-20T05:42:25;101012.06;;;5.57;100.00
27040;BME280;14589;51.578;7.306;2023-12-20T05:44:55;101009.38;;;5.57;100.00
27040;BME280;14589;51.578;7.306;2023-12-20T05:47:25;101017.13;;;5.62;100.00
27040;BME280;14589;51.578;7.306;2023-12-20T05:49:56;101009.38;;;5.57;100.00
27040;BME280;14589;51.578;7.306;2023-12-20T05:52:26;101010.03;;;5.61;100.00
27040;BME280;14589;51.578;7.306;2023-12-20T05:54:56;101025.31;;;5.60;100.00
27040;BME280;14589;51.578;7.306;2023-12-20T05:57:31;101010.25;;;5.58;100.00
27040;BME280;14589;51.578;7.306;2023-12-20T06:00:01;101014.56;;;5.60;100.00
27040;BME280;14589;51.578;7.306;2023-12-20T06:02:31;101022.28;;;5.65;100.00
27040;BME280;14589;51.578;7.306;2023-12-20T06:05:04;101025.75;;;5.67;100.00
27040;BME280;14589;51.578;7.306;2023-12-20T06:07:35;101024.03;;;5.66;100.00
27040;BME280;14589;51.578;7.306;2023-12-20T06:10:06;101016.03;;;5.64;100.00
27040;BME280;14589;51.578;7.306;2023-12-20T06:12:36;101012.59;;;5.62;100.00
27040;BME280;14589;51.578;7.306;2023-12-20T06:15:07;101014.56;;;5.60;100.00
27040;BME280;14589;51.578;7.306;2023-12-20T06:17:37;101025.09;;;5.63;100.00
27040;BME280;14589;51.578;7.306;2023-12-20T06:20:08;101032.94;;;5.66;100.00
27040;BME280;14589;51.578;7.306;2023-12-20T06:22:39;101016.47;;;5.71;100.00
27040;BME280;14589;51.578;7.306;2023-12-20T06:25:09;101018.28;;;5.70;100.00
27040;BME280;14589;51.578;7.306;2023-12-20T06:27:40;101018.84;;;5.63;100.00
27040;BME280;14589;51.578;7.306;2023-12-20T06:30:11;101023.06;;;5.67;100.00
27040;BME280;14589;51.578;7.306;2023-12-20T06:32:42;101022.28;;;5.65;100.00
27040;BME280;14589;51.578;7.306;2023-12-20T06:35:12;101013.16;;;5.67;100.00
27040;BME280;14589;51.578;7.306;2023-12-20T06:37:43;101010.56;;;5.66;100.00
27040;BME280;14589;51.578;7.306;2023-12-20T06:40:13;101017.66;;;5.67;100.00
27040;BME280;14589;51.578;7.306;2023-12-20T06:42:44;101030.88;;;5.70;100.00
27040;BME280;14589;51.578;7.306;2023-12-20T06:45:14;101036.50;;;5.67;100.00
27040;BME280;14589;51.578;7.306;2023-12-20T06:47:45;101054.13;;;5.71;100.00
27040;BME280;14589;51.578;7.306;2023-12-20T06:50:15;101035.31;;;5.71;100.00
27040;BME280;14589;51.578;7.306;2023-12-20T06:52:45;101032.28;;;5.76;100.00
27040;BME280;14589;51.578;7.306;2023-12-20T06:55:16;101034.44;;;5.70;100.00
27040;BME280;14589;51.578;7.306;2023-12-20T06:57:47;101027.22;;;5.71;100.00
27040;BME280;14589;51.578;7.306;2023-12-20T07:00:18;101031.66;;;5.72;100.00
27040;BME280;14589;51.578;7.306;2023-12-20T07:02:50;101018.09;;;5.74;100.00
27040;BME280;14589;51.578;7.306;2023-12-20T07:05:20;101014.53;;;5.73;100.00
27040;BME280;14589;51.578;7.306;2023-12-20T07:07:50;101017.75;;;5.78;100.00
27040;BME280;14589;51.578;7.306;2023-12-20T07:10:21;101019.56;;;5.78;100.00
27040;BME280;14589;51.578;7.306;2023-12-20T07:12:51;101021.41;;;5.77;100.00
27040;BME280;14589;51.578;7.306;2023-12-20T07:15:22;101020.44;;;5.78;100.00
27040;BME280;14589;51.578;7.306;2023-12-20T07:17:53;101008.28;;;5.73;100.00
27040;BME280;14589;51.578;7.306;2023-12-20T07:20:23;101009.78;;;5.77;100.00
27040;BME280;14589;51.578;7.306;2023-12-20T07:22:54;101010.53;;;5.79;100.00
27040;BME280;14589;51.578;7.306;2023-12-20T07:25:25;101019.25;;;5.82;100.00
27040;BME280;14589;51.578;7.306;2023-12-20T07:27:55;101021.16;;;5.80;100.00
27040;BME280;14589;51.578;7.306;2023-12-20T07:30:25;101030.97;;;5.81;100.00
27040;BME280;14589;51.578;7.306;2023-12-20T07:32:56;101018.81;;;5.88;100.00
27040;BME280;14589;51.578;7.306;2023-12-20T07:35:26;101022.47;;;5.87;100.00
27040;BME280;14589;51.578;7.306;2023-12-20T07:37:57;101036.69;;;5.89;100.00
27040;BME280;14589;51.578;7.306;2023-12-20T07:40:27;101021.50;;;5.88;100.00
27040;BME280;14589;51.578;7.306;2023-12-20T07:42:57;101013.84;;;5.82;100.00
27040;BME280;14589;51.578;7.306;2023-12-20T07:45:28;101028.63;;;5.89;100.00
27040;BME280;14589;51.578;7.306;2023-12-20T07:47:58;101027.31;;;5.82;100.00
27040;BME280;14589;51.578;7.306;2023-12-20T07:50:29;101011.72;;;5.87;100.00
27040;BME280;14589;51.578;7.306;2023-12-20T07:52:59;101025.28;;;5.86;100.00
27040;BME280;14589;51.578;7.306;2023-12-20T07:55:31;101032.06;;;5.91;100.00
27040;BME280;14589;51.578;7.306;2023-12-20T07:58:01;101033.13;;;5.89;100.00
27040;BME280;14589;51.578;7.306;2023-12-20T08:00:31;101026.34;;;5.96;100.00
27040;BME280;14589;51.578;7.306;2023-12-20T08:03:02;101034.75;;;5.91;100.00
27040;BME280;14589;51.578;7.306;2023-12-20T08:05:33;101026.00;;;6.00;100.00
27040;BME280;14589;51.578;7.306;2023-12-20T08:08:04;101019.88;;;5.98;100.00
27040;BME280;14589;51.578;7.306;2023-12-20T08:10:35;101002.03;;;5.97;100.00
27040;BME280;14589;51.578;7.306;2023-12-20T08:13:05;101003.28;;;6.04;100.00
27040;BME280;14589;51.578;7.306;2023-12-20T08:15:36;101015.03;;;6.03;100.00
27040;BME280;14589;51.578;7.306;2023-12-20T08:18:07;101002.28;;;6.05;100.00
27040;BME280;14589;51.578;7.306;2023-12-20T08:20:38;101016.50;;;6.07;100.00
27040;BME280;14589;51.578;7.306;2023-12-20T08:23:08;101006.28;;;6.00;100.00
27040;BME280;14589;51.578;7.306;2023-12-20T08:25:38;101018.13;;;6.10;100.00
27040;BME280;14589;51.578;7.306;2023-12-20T08:28:09;101016.28;;;6.11;100.00
27040;BME280;14589;51.578;7.306;2023-12-20T08:30:39;101017.03;;;6.13;100.00
27040;BME280;14589;51.578;7.306;2023-12-20T08:33:09;101005.28;;;6.14;100.00
27040;BME280;14589;51.578;7.306;2023-12-20T08:35:42;101008.44;;;6.07;100.00
27040;BME280;14589;51.578;7.306;2023-12-20T08:38:13;101007.34;;;6.10;100.00
27040;BME280;14589;51.578;7.306;2023-12-20T08:40:44;101014.56;;;6.09;100.00
27040;BME280;14589;51.578;7.306;2023-12-20T08:43:14;101014.00;;;6.17;100.00
27040;BME280;14589;51.578;7.306;2023-12-20T08:45:45;101017.53;;;6.18;100.00
27040;BME280;14589;51.578;7.306;2023-12-20T08:48:15;101021.94;;;6.19;100.00
27040;BME280;14589;51.578;7.306;2023-12-20T08:50:45;101028.19;;;6.19;100.00
27040;BME280;14589;51.578;7.306;2023-12-20T08:53:20;101033.38;;;6.22;100.00
27040;BME280;14589;51.578;7.306;2023-12-20T08:55:50;101028.94;;;6.21;100.00
27040;BME280;14589;51.578;7.306;2023-12-20T08:58:21;101017.31;;;6.21;100.00
27040;BME280;14589;51.578;7.306;2023-12-20T09:00:51;101007.31;;;6.23;100.00
27040;BME280;14589;51.578;7.306;2023-12-20T09:03:21;101004.47;;;6.24;100.00
27040;BME280;14589;51.578;7.306;2023-12-20T09:05:52;101008.44;;;6.31;100.00
27040;BME280;14589;51.578;7.306;2023-12-20T09:08:22;101005.13;;;6.28;100.00
27040;BME280;14589;51.578;7.306;2023-12-20T09:10:52;101009.41;;;6.30;100.00
27040;BME280;14589;51.578;7.306;2023-12-20T09:13:23;101009.53;;;6.29;100.00
27040;BME280;14589;51.578;7.306;2023-12-20T09:15:58;101001.22;;;6.32;100.00
27040;BME280;14589;51.578;7.306;2023-12-20T09:18:28;100993.91;;;6.34;100.00
27040;BME280;14589;51.578;7.306;2023-12-20T09:20:59;100992.06;;;6.34;100.00
27040;BME280;14589;51.578;7.306;2023-12-20T09:23:29;100997.19;;;6.37;100.00
27040;BME280;14589;51.578;7.306;2023-12-20T09:25:59;100994.97;;;6.31;100.00
27040;BME280;14589;51.578;7.306;2023-12-20T09:28:30;100996.84;;;6.42;100.00
27040;BME280;14589;51.578;7.306;2023-12-20T09:31:00;100991.72;;;6.39;100.00
27040;BME280;14589;51.578;7.306;2023-12-20T09:33:31;100992.06;;;6.34;100.00
27040;BME280;14589;51.578;7.306;2023-12-20T09:36:02;101000.41;;;6.42;100.00
27040;BME280;14589;51.578;7.306;2023-12-20T09:38:32;100989.97;;;6.38;100.00
27040;BME280;14589;51.578;7.306;2023-12-20T09:41:03;100980.53;;;6.32;100.00
27040;BME280;14589;51.578;7.306;2023-12-20T09:43:37;100990.50;;;6.43;100.00
27040;BME280;14589;51.578;7.306;2023-12-20T09:46:09;100987.34;;;6.49;100.00
27040;BME280;14589;51.578;7.306;2023-12-20T09:48:43;100987.34;;;6.49;100.00
27040;BME280;14589;51.578;7.306;2023-12-20T09:51:15;100975.59;;;6.50;100.00
27040;BME280;14589;51.578;7.306;2023-12-20T09:53:46;100996.41;;;6.48;100.00
27040;BME280;14589;51.578;7.306;2023-12-20T09:56:17;100987.13;;;6.52;100.00
27040;BME280;14589;51.578;7.306;2023-12-20T09:58:48;100976.34;;;6.52;100.00
27040;BME280;14589;51.578;7.306;2023-12-20T10:01:18;100988.84;;;6.53;100.00
27040;BME280;14589;51.578;7.306;2023-12-20T10:03:51;100990.19;;;6.59;100.00
27040;BME280;14589;51.578;7.306;2023-12-20T10:06:24;100984.81;;;6.59;100.00
27040;BME280;14589;51.578;7.306;2023-12-20T10:08:54;100991.94;;;6.60;100.00
27040;BME280;14589;51.578;7.306;2023-12-20T10:11:25;100988.38;;;6.59;100.00
27040;BME280;14589;51.578;7.306;2023-12-20T10:14:01;100988.59;;;6.56;100.00
27040;BME280;14589;51.578;7.306;2023-12-20T10:16:33;100977.34;;;6.62;100.00
27040;BME280;14589;51.578;7.306;2023-12-20T10:19:03;100985.78;;;6.58;100.00
27040;BME280;14589;51.578;7.306;2023-12-20T10:21:34;100989.84;;;6.63;100.00
27040;BME280;14589;51.578;7.306;2023-12-20T10:24:04;100971.59;;;6.67;100.00
27040;BME280;14589;51.578;7.306;2023-12-20T10:26:35;100977.72;;;6.69;100.00
27040;BME280;14589;51.578;7.306;2023-12-20T10:29:06;100983.47;;;6.64;100.00
27040;BME280;14589;51.578;7.306;2023-12-20T10:31:37;100971.94;;;6.62;100.00
27040;BME280;14589;51.578;7.306;2023-12-20T10:34:08;100969.53;;;6.70;100.00
27040;BME280;14589;51.578;7.306;2023-12-20T10:36:39;100966.19;;;6.67;100.00
27040;BME280;14589;51.578;7.306;2023-12-20T10:39:10;100972.22;;;6.70;100.00
27040;BME280;14589;51.578;7.306;2023-12-20T10:41:41;100964.03;;;6.72;100.00
27040;BME280;14589;51.578;7.306;2023-12-20T10:44:13;100965.38;;;6.66;100.00
27040;BME280;14589;51.578;7.306;2023-12-20T10:46:44;100973.44;;;6.66;100.00
27040;BME280;14589;51.578;7.306;2023-12-20T10:49:21;100968.78;;;6.68;100.00
27040;BME280;14589;51.578;7.306;2023-12-20T10:51:54;100965.22;;;6.68;100.00
27040;BME280;14589;51.578;7.306;2023-12-20T10:54:24;100967.59;;;6.72;100.00
27040;BME280;14589;51.578;7.306;2023-12-20T10:56:57;100956.56;;;6.75;100.00
27040;BME280;14589;51.578;7.306;2023-12-20T10:59:28;100959.25;;;6.75;100.00
27040;BME280;14589;51.578;7.306;2023-12-20T11:01:59;100954.34;;;6.80;100.00
27040;BME280;14589;51.578;7.306;2023-12-20T11:04:53;100965.78;;;6.84;100.00
27040;BME280;14589;51.578;7.306;2023-12-20T11:07:43;100971.88;;;6.86;100.00
27040;BME280;14589;51.578;7.306;2023-12-20T11:10:59;100972.28;;;6.93;100.00
27040;BME280;14589;51.578;7.306;2023-12-20T11:13:36;100969.47;;;6.94;100.00
27040;BME280;14589;51.578;7.306;2023-12-20T11:16:10;100944.84;;;6.99;100.00
27040;BME280;14589;51.578;7.306;2023-12-20T11:18:41;100957.34;;;7.00;100.00
27040;BME280;14589;51.578;7.306;2023-12-20T11:21:12;100965.44;;;7.00;100.00
27040;BME280;14589;51.578;7.306;2023-12-20T11:23:44;100958.56;;;7.07;100.00
27040;BME280;14589;51.578;7.306;2023-12-20T11:26:22;100938.34;;;7.01;100.00
27040;BME280;14589;51.578;7.306;2023-12-20T11:29:31;100948.28;;;7.12;100.00
27040;BME280;14589;51.578;7.306;2023-12-20T11:32:03;100948.78;;;7.17;100.00
27040;BME280;14589;51.578;7.306;2023-12-20T11:34:55;100940.94;;;7.14;100.00
27040;BME280;14589;51.578;7.306;2023-12-20T11:37:35;100937.13;;;7.16;100.00
27040;BME280;14589;51.578;7.306;2023-12-20T11:40:07;100938.72;;;7.19;100.00
27040;BME280;14589;51.578;7.306;2023-12-20T11:42:40;100949.78;;;7.16;100.00
27040;BME280;14589;51.578;7.306;2023-12-20T11:45:13;100935.28;;;7.17;100.00
27040;BME280;14589;51.578;7.306;2023-12-20T11:47:48;100954.81;;;7.20;100.00
27040;BME280;14589;51.578;7.306;2023-12-20T11:50:21;100934.31;;;7.18;100.00
27040;BME280;14589;51.578;7.306;2023-12-20T11:52:52;100934.56;;;7.15;100.00
27040;BME280;14589;51.578;7.306;2023-12-20T11:55:24;100940.94;;;7.03;100.00
27040;BME280;14589;51.578;7.306;2023-12-20T11:57:54;100930.75;;;6.95;100.00
27040;BME280;14589;51.578;7.306;2023-12-20T12:00:25;100923.53;;;6.96;100.00
27040;BME280;14589;51.578;7.306;2023-12-20T12:02:58;100930.28;;;7.01;100.00
27040;BME280;14589;51.578;7.306;2023-12-20T12:05:30;100921.31;;;6.89;100.00
27040;BME280;14589;51.578;7.306;2023-12-20T12:08:02;100910.75;;;6.86;100.00
27040;BME280;14589;51.578;7.306;2023-12-20T12:10:32;100923.63;;;6.94;100.00
27040;BME280;14589;51.578;7.306;2023-12-20T12:13:03;100913.34;;;6.88;100.00
27040;BME280;14589;51.578;7.306;2023-12-20T12:15:34;100906.34;;;6.85;100.00
27040;BME280;14589;51.578;7.306;2023-12-20T12:18:04;100913.59;;;6.85;100.00
27040;BME280;14589;51.578;7.306;2023-12-20T12:20:35;100911.88;;;6.84;100.00
27040;BME280;14589;51.578;7.306;2023-12-20T12:23:06;100910.91;;;6.85;100.00
27040;BME280;14589;51.578;7.306;2023-12-20T12:25:37;100899.13;;;6.86;100.00
27040;BME280;14589;51.578;7.306;2023-12-20T12:28:07;100911.88;;;6.84;100.00
27040;BME280;14589;51.578;7.306;2023-12-20T12:30:38;100906.00;;;6.90;100.00
27040;BME280;14589;51.578;7.306;2023-12-20T12:33:08;100899.00;;;6.87;100.00
27040;BME280;14589;51.578;7.306;2023-12-20T12:35:40;100899.75;;;6.89;100.00
27040;BME280;14589;51.578;7.306;2023-12-20T12:38:11;100901.31;;;6.81;100.00
27040;BME280;14589;51.578;7.306;2023-12-20T12:40:43;100892.84;;;6.85;100.00
27040;BME280;14589;51.578;7.306;2023-12-20T12:43:13;100896.56;;;6.84;100.00
27040;BME280;14589;51.578;7.306;2023-12-20T12:45:44;100881.25;;;6.85;100.00
27040;BME280;14589;51.578;7.306;2023-12-20T12:48:15;100877.91;;;6.81;100.00
27040;BME280;14589;51.578;7.306;2023-12-20T12:50:46;100884.91;;;6.84;100.00
27040;BME280;14589;51.578;7.306;2023-12-20T12:53:16;100874.84;;;6.86;100.00
27040;BME280;14589;51.578;7.306;2023-12-20T12:55:47;100872.91;;;6.88;100.00
27040;BME280;14589;51.578;7.306;2023-12-20T12:58:17;100873.75;;;6.88;100.00
27040;BME280;14589;51.578;7.306;2023-12-20T13:00:47;100875.88;;;6.85;100.00
27040;BME280;14589;51.578;7.306;2023-12-20T13:03:18;100877.81;;;6.83;100.00
27040;BME280;14589;51.578;7.306;2023-12-20T13:05:48;100878.41;;;6.86;100.00
27040;BME280;14589;51.578;7.306;2023-12-20T13:08:20;100884.91;;;6.84;100.00
27040;BME280;14589;51.578;7.306;2023-12-20T13:10:50;100856.00;;;6.86;100.00